EDT,Max TemperatureF,Mean TemperatureF,Min TemperatureF,Max Dew PointF,MeanDew PointF,Min DewpointF,Max Humidity, Mean Humidity, Min Humidity, Max Sea Level PressureIn, Mean Sea Level PressureIn, Min Sea Level PressureIn, Max VisibilityMiles, Mean VisibilityMiles, Min VisibilityMiles, Max Wind SpeedMPH, Mean Wind SpeedMPH, Max Gust SpeedMPH,PrecipitationIn, CloudCover, Events, WindDirDegrees
2013-8-1,88,80,72,76,74,72,100,82,63,30.07,30.02,29.97,10,10,10,16,6,21,0.00,1,,118
2013-8-2,88,80,72,76,74,72,100,82,63,30.04,30.00,29.95,10,10,10,21,5,26,0.00,2,,320
2013-8-3,82,78,74,79,75,71,100,90,79,30.12,30.08,30.03,10,10,8,18,6,23,0.03,5,Rain-Thunderstorm,204
2013-8-4,93,83,73,78,75,72,100,78,56,30.11,30.05,30.01,10,8,1,26,6,36,0.03,2,Rain-Thunderstorm,226
2013-8-5,91,83,74,79,76,73,100,80,59,30.04,29.99,29.95,10,10,4,18,7,21,0.04,3,Rain-Thunderstorm,245
2013-8-6,89,80,71,78,75,71,100,85,70,29.99,29.95,29.92,10,10,2,12,4,15,0.00,0,,95
2013-8-7,90,82,74,79,76,73,100,82,63,30.00,29.96,29.93,10,9,5,23,8,28,0.00,1,,129
2013-8-8,90,84,78,76,75,73,91,78,64,30.05,30.00,29.96,10,10,10,20,10,24,0.00,0,,117
2013-8-9,90,83,76,77,74,70,91,75,59,30.09,30.04,29.99,10,10,10,22,11,26,0.00,1,Thunderstorm,114
2013-8-10,91,83,74,77,76,73,100,80,59,30.14,30.10,30.07,10,10,10,17,8,23,0.00,1,,111
2013-8-11,90,81,72,79,76,73,100,80,59,30.17,30.13,30.10,10,10,8,14,6,23,0.00,3,,97
2013-8-12,89,79,69,76,73,70,100,82,63,30.14,30.09,30.04,10,8,2,13,5,17,0.00,0,,72
2013-8-13,91,82,72,77,75,72,100,82,63,30.08,30.02,29.97,10,10,9,17,7,21,0.00,2,,132
2013-8-14,92,84,76,75,74,70,94,75,55,30.04,29.99,29.94,10,10,10,20,10,24,0.00,0,,166
2013-8-15,90,82,74,78,75,73,100,80,59,30.06,30.01,29.97,10,10,10,15,6,16,T,1,,159
2013-8-16,90,83,76,79,76,72,100,80,59,30.07,30.04,30.00,10,10,10,18,7,23,0.01,1,Rain-Thunderstorm,143
2013-8-17,91,84,76,79,77,76,100,82,64,30.10,30.06,30.02,10,10,10,20,9,23,0.00,0,,127
2013-8-18,90,83,76,78,77,75,100,84,68,30.11,30.07,30.03,10,10,7,20,9,26,0.14,1,,105
2013-8-19,91,84,76,78,76,75,100,80,60,30.09,30.04,30.00,10,10,10,17,8,23,0.00,1,,105
2013-8-20,91,83,74,79,76,74,100,82,64,30.10,30.06,30.01,10,10,8,15,8,21,0.04,1,Rain-Thunderstorm,88
2013-8-21,90,84,77,78,77,72,97,83,68,30.12,30.09,30.05,10,9,2,20,8,25,0.51,3,Rain-Thunderstorm,98
2013-8-22,90,83,75,79,77,75,100,84,68,30.10,30.05,30.00,10,10,8,17,8,23,T,1,Rain,100
2013-8-23,88,81,74,79,77,73,100,84,68,30.04,30.01,29.97,10,10,8,22,6,25,T,3,Rain,108
2013-8-24,89,81,73,78,76,73,100,84,68,30.11,30.07,30.01,10,9,2,25,6,30,0.00,1,Thunderstorm,71
2013-8-25,85,80,75,78,75,72,100,83,65,30.17,30.12,30.07,10,10,10,13,5,16,0.02,2,Rain,28
2013-8-26,89,81,73,77,74,73,100,80,59,30.12,30.08,30.03,10,10,2,15,5,20,T,2,Thunderstorm,78
2013-8-27,88,80,72,75,72,69,100,80,59,30.06,30.03,30.00,10,9,1,22,7,25,0.49,4,Rain-Thunderstorm,46
2013-8-28,88,80,72,75,72,67,100,82,63,30.06,30.02,29.99,10,10,10,17,6,24,0.12,4,,53
2013-8-29,88,79,70,75,73,70,100,78,55,30.06,30.01,29.96,10,10,3,12,4,16,0.04,3,Rain,108
2013-8-30,90,81,72,76,74,69,100,78,55,30.01,29.96,29.92,10,10,6,14,4,20,0.00,1,Thunderstorm,123
2013-8-31,90,82,74,78,74,69,100,78,56,30.00,29.96,29.92,10,10,10,24,7,33,0.00,2,Thunderstorm,168